Time;durP1;ratioP1;P1;durP2;ratioP2;P2;SDS_P1;SDS_P2;PMS_P1;PMS_P2;Temp;Humidity;BMP_temperature;BMP_pressure;BME280_temperature;BME280_humidity;BME280_pressure;Samples;Min_cycle;Max_cycle;Signal;HPM_P1;HPM_P2
2022/08/04 00:00:09;;;;;;;3.08;1.33;;;;;;;19.80;100.00;95748.75;1022521;28;20033;-71
2022/08/04 00:00:41;;;;;;;1.48;1.38;;;;;;;19.78;100.00;95752.53;1030221;28;20561;-72
2022/08/04 00:01:17;;;;;;;6.65;1.83;;;;;;;19.78;100.00;95751.72;1029475;28;20028;-71
2022/08/04 00:01:50;;;;;;;5.65;1.83;;;;;;;19.76;100.00;95745.94;1030188;28;20036;-71
2022/08/04 00:02:26;;;;;;;2.75;2.05;;;;;;;19.77;100.00;95750.16;1028881;28;20018;-71
2022/08/04 00:03:14;;;;;;;1.33;1.23;;;;;;;19.77;100.00;95750.16;1026043;28;20085;-71
2022/08/04 00:04:07;;;;;;;2.30;1.45;;;;;;;19.71;100.00;95746.88;1026056;28;20503;-72
2022/08/04 00:04:44;;;;;;;4.68;1.90;;;;;;;19.73;100.00;95750.03;1025779;28;20033;-71
2022/08/04 00:05:24;;;;;;;2.00;1.40;;;;;;;19.69;100.00;95748.34;1027674;28;20133;-71
2022/08/04 00:06:09;;;;;;;;;;;;;;;19.68;100.00;95747.53;1030583;28;20098;-69
2022/08/04 00:06:47;;;;;;;3.90;1.50;;;;;;;19.65;100.00;95753.53;1026307;28;20017;-72
2022/08/04 00:07:25;;;;;;;4.47;1.80;;;;;;;19.57;100.00;95746.31;1026335;28;20054;-70
2022/08/04 00:08:15;;;;;;;3.53;1.80;;;;;;;19.59;100.00;95748.66;1027086;28;20022;-71
2022/08/04 00:08:49;;;;;;;3.75;1.63;;;;;;;19.51;100.00;95748.34;1030254;28;20524;-72
2022/08/04 00:09:29;;;;;;;3.92;1.60;;;;;;;19.50;100.00;95748.69;1030298;28;20026;-70
2022/08/04 00:10:06;;;;;;;1.67;1.58;;;;;;;19.30;100.00;95719.00;1026042;28;20077;-71
2022/08/04 00:10:38;;;;;;;3.13;1.73;;;;;;;19.47;100.00;95749.31;1022323;29;20044;-71
2022/08/04 00:11:09;;;;;;;8.38;2.10;;;;;;;19.46;100.00;95753.88;1017627;29;20022;-71
2022/08/04 00:11:40;;;;;;;3.17;1.85;;;;;;;19.38;100.00;95744.00;1021698;28;20023;-71
2022/08/04 00:12:10;;;;;;;2.78;1.63;;;;;;;19.41;100.00;95753.25;1019038;28;20039;-71
2022/08/04 00:12:43;;;;;;;3.90;1.73;;;;;;;19.39;100.00;95756.25;1026302;28;20098;-72
2022/08/04 00:13:14;;;;;;;3.17;1.60;;;;;;;19.35;100.00;95750.00;1026362;28;20031;-71
2022/08/04 00:13:49;;;;;;;1.90;1.73;;;;;;;19.33;100.00;95754.06;1025964;28;20498;-71
2022/08/04 00:14:19;;;;;;;2.70;1.83;;;;;;;19.36;100.00;95753.44;1018264;29;20018;-72
2022/08/04 00:14:50;;;;;;;1.73;1.55;;;;;;;19.34;100.00;95752.97;1014319;29;20696;-71
2022/08/04 00:15:20;;;;;;;1.65;1.48;;;;;;;19.26;100.00;95746.56;1014509;29;20024;-71
2022/08/04 00:15:57;;;;;;;5.85;1.60;;;;;;;19.28;100.00;95752.34;1022218;28;20023;-70
2022/08/04 00:16:35;;;;;;;5.53;1.80;;;;;;;19.24;100.00;95754.84;1022743;28;20131;-70
2022/08/04 00:17:06;;;;;;;3.15;1.98;;;;;;;19.24;100.00;95754.09;1026311;28;20081;-70
2022/08/04 00:17:42;;;;;;;4.72;2.03;;;;;;;19.16;100.00;95754.91;1014372;29;20212;-71
2022/08/04 00:18:14;;;;;;;7.50;2.20;;;;;;;19.16;100.00;95755.69;1018141;29;20032;-72
2022/08/04 00:18:56;;;;;;;4.63;1.58;;;;;;;19.14;100.00;95760.53;1020126;29;20019;-71
2022/08/04 00:19:32;;;;;;;6.38;1.77;;;;;;;19.12;100.00;95760.06;1022382;29;20062;-73
2022/08/04 00:20:03;;;;;;;4.55;1.90;;;;;;;19.08;100.00;95756.50;1024871;28;20055;-71
2022/08/04 00:20:36;;;;;;;2.15;1.60;;;;;;;19.06;100.00;95754.13;1025461;28;20102;-71
2022/08/04 00:21:09;;;;;;;4.13;2.10;;;;;;;18.97;100.00;95745.38;1017683;29;20032;-70
2022/08/04 00:21:42;;;;;;;5.93;2.03;;;;;;;19.01;100.00;95751.66;1018053;29;20521;-71
2022/08/04 00:22:13;;;;;;;6.28;1.98;;;;;;;18.99;100.00;95751.16;1011773;29;20123;-70
2022/08/04 00:22:44;;;;;;;10.38;2.33;;;;;;;18.91;100.00;95748.50;1014783;29;20771;-71
2022/08/04 00:23:15;;;;;;;10.95;2.88;;;;;;;18.96;100.00;95754.47;1011207;29;20025;-71
2022/08/04 00:23:45;;;;;;;7.88;2.83;;;;;;;18.90;100.00;95750.41;1012876;29;20555;-71
2022/08/04 00:24:16;;;;;;;9.23;2.00;;;;;;;18.92;100.00;95758.06;1018329;29;20035;-72
2022/08/04 00:24:46;;;;;;;3.28;2.03;;;;;;;18.89;100.00;95753.38;1014115;29;20088;-71
2022/08/04 00:25:17;;;;;;;3.13;1.65;;;;;;;18.85;100.00;95755.88;1014333;29;20738;-70
2022/08/04 00:25:47;;;;;;;5.82;1.73;;;;;;;18.81;100.00;95750.44;1018274;29;20134;-72
2022/08/04 00:26:18;;;;;;;15.25;2.88;;;;;;;18.82;100.00;95753.84;1022387;29;20031;-72
2022/08/04 00:26:50;;;;;;;4.90;1.88;;;;;;;18.80;100.00;95754.16;1018160;29;20087;-71
2022/08/04 00:27:20;;;;;;;11.57;2.92;;;;;;;18.78;100.00;95759.03;1019393;29;20019;-71
2022/08/04 00:27:51;;;;;;;7.32;2.67;;;;;;;18.76;100.00;95750.56;1018197;29;20691;-71
2022/08/04 00:28:21;;;;;;;9.13;2.30;;;;;;;18.73;100.00;95751.19;1014408;29;20028;-72
2022/08/04 00:28:52;;;;;;;4.15;2.20;;;;;;;18.74;100.00;95754.63;1015386;29;20070;-72
2022/08/04 00:29:22;;;;;;;5.22;2.38;;;;;;;18.71;100.00;95756.03;1014428;29;20550;-71
2022/08/04 00:29:53;;;;;;;3.30;1.80;;;;;;;18.72;100.00;95754.97;1014611;28;20025;-71
2022/08/04 00:30:23;;;;;;;5.25;2.03;;;;;;;18.70;100.00;95753.69;1030145;28;20026;-73
2022/08/04 00:30:54;;;;;;;3.65;2.13;;;;;;;18.67;100.00;95751.63;1025890;28;20030;-72
2022/08/04 00:31:24;;;;;;;3.08;1.92;;;;;;;18.64;100.00;95753.03;1025145;28;20027;-69
2022/08/04 00:31:55;;;;;;;3.63;1.73;;;;;;;18.64;100.00;95757.59;1014380;29;20020;-71
2022/08/04 00:32:25;;;;;;;11.77;2.10;;;;;;;18.65;100.00;95762.59;1020765;28;20024;-71
2022/08/04 00:32:59;;;;;;;5.90;2.10;;;;;;;18.63;100.00;95753.38;1022188;28;20111;-73
2022/08/04 00:33:32;;;;;;;6.65;2.05;;;;;;;18.63;100.00;95756.81;1022401;28;20023;-71
2022/08/04 00:34:03;;;;;;;5.63;1.80;;;;;;;18.58;100.00;95749.78;1020771;28;20026;-72
2022/08/04 00:34:34;;;;;;;6.22;1.75;;;;;;;18.51;100.00;95744.16;1014461;29;20024;-71
2022/08/04 00:35:05;;;;;;;13.02;2.28;;;;;;;18.55;100.00;95753.06;1021902;29;20023;-72
2022/08/04 00:35:37;;;;;;;4.30;2.42;;;;;;;18.55;100.00;95753.06;1026149;28;20094;-72
2022/08/04 00:36:07;;;;;;;9.40;2.50;;;;;;;18.54;100.00;95756.81;1016638;29;20031;-71
2022/08/04 00:36:40;;;;;;;12.48;2.00;;;;;;;18.50;100.00;95747.09;1018248;29;20498;-71
2022/08/04 00:37:10;;;;;;;10.50;2.75;;;;;;;18.49;100.00;95751.66;1024422;28;20034;-72
2022/08/04 00:37:43;;;;;;;7.38;2.00;;;;;;;18.49;100.00;95746.34;1025968;28;20045;-71
2022/08/04 00:38:15;;;;;;;6.47;2.45;;;;;;;18.50;100.00;95753.19;1017565;29;20035;-71
2022/08/04 00:38:46;;;;;;;4.70;1.83;;;;;;;18.49;100.00;95754.31;1018868;29;20020;-72
2022/08/04 00:39:16;;;;;;;2.80;1.85;;;;;;;18.48;100.00;95750.09;1021824;29;20421;-73
2022/08/04 00:39:48;;;;;;;2.92;2.05;;;;;;;18.43;100.00;95747.56;1026261;28;20023;-72
2022/08/04 00:40:27;;;;;;;5.78;2.00;;;;;;;18.44;100.00;95757.09;1025981;28;20033;-76
2022/08/04 00:41:01;;;;;;;5.28;1.92;;;;;;;18.45;100.00;95755.25;1021847;29;20107;-70
2022/08/04 00:41:37;;;;;;;7.90;1.95;;;;;;;18.45;100.00;95753.38;1023121;28;20662;-72
2022/08/04 00:42:17;;;;;;;6.97;2.15;;;;;;;18.43;100.00;95750.22;1022162;29;20600;-74
2022/08/04 00:42:57;;;;;;;4.10;2.20;;;;;;;18.41;100.00;95755.09;1020506;29;20050;-72
2022/08/04 00:43:31;;;;;;;8.02;2.10;;;;;;;18.41;100.00;95748.97;1018153;29;20067;-72
2022/08/04 00:44:19;;;;;;;5.72;1.88;;;;;;;18.38;100.00;95755.72;1023717;28;20424;-72
2022/08/04 00:45:09;;;;;;;5.82;2.28;;;;;;;18.38;100.00;95750.41;1030066;28;20014;-72
2022/08/04 00:45:48;;;;;;;4.85;1.85;;;;;;;18.31;100.00;95744.78;1025180;28;20037;-71
2022/08/04 00:46:25;;;;;;;11.48;2.13;;;;;;;18.34;100.00;95757.41;1026269;28;20023;-71
2022/08/04 00:47:32;;;;;;;30.60;4.70;;;;;;;18.33;100.00;95756.63;1030180;28;20492;-70
2022/08/04 00:48:08;;;;;;;12.48;2.83;;;;;;;18.29;100.00;95749.59;1029953;28;20018;-71
2022/08/04 00:49:15;;;;;;;15.65;2.88;;;;;;;18.25;100.00;95751.31;1030062;28;20385;-71
2022/08/04 00:49:45;;;;;;;11.15;2.90;;;;;;;18.25;100.00;95751.31;1027396;28;20122;-72
2022/08/04 00:50:21;;;;;;;10.70;2.17;;;;;;;18.24;100.00;95760.38;1030170;28;20626;-71
2022/08/04 00:51:17;;;;;;;10.60;2.40;;;;;;;18.20;100.00;95759.44;1029903;28;20097;-70
2022/08/04 00:52:08;;;;;;;7.35;2.33;;;;;;;18.17;100.00;95755.50;1033674;28;20022;-72
2022/08/04 00:52:46;;;;;;;6.25;2.55;;;;;;;18.13;100.00;95755.34;1025728;28;20698;-71
2022/08/04 00:53:41;;;;;;;7.00;2.35;;;;;;;18.14;100.00;95751.63;1021912;29;20027;-71
2022/08/04 00:54:16;;;;;;;6.43;2.30;;;;;;;18.12;100.00;95758.34;1029899;28;20030;-70
2022/08/04 00:55:06;;;;;;;7.80;2.20;;;;;;;18.12;100.00;95759.09;1029888;28;20045;-69
2022/08/04 00:55:57;;;;;;;8.20;2.65;;;;;;;18.12;100.00;95761.75;1034131;28;20034;-72
2022/08/04 00:57:24;;;;;;;9.55;2.60;;;;;;;18.08;100.00;95758.16;1034248;28;20205;-71
2022/08/04 00:58:17;;;;;;;5.35;2.35;;;;;;;18.05;100.00;95760.66;1021550;29;20027;-72
2022/08/04 00:59:17;;;;;;;2.92;1.90;;;;;;;18.02;100.00;95755.97;1029115;28;20042;-70
2022/08/04 00:59:53;;;;;;;6.03;2.08;;;;;;;18.00;100.00;95760.78;1029774;28;20038;-70
2022/08/04 01:00:24;;;;;;;2.03;1.80;;;;;;;17.93;100.00;95750.63;1029739;28;20041;-72
2022/08/04 01:01:02;;;;;;;3.28;2.10;;;;;;;17.90;100.00;95745.94;1029874;28;20081;-70
2022/08/04 01:02:00;;;;;;;5.00;2.47;;;;;;;17.96;100.00;95762.50;1025405;28;20046;-69
2022/08/04 01:02:49;;;;;;;4.30;1.60;;;;;;;17.97;100.00;95762.19;1026730;28;20099;-70
2022/08/04 01:03:31;;;;;;;5.32;2.10;;;;;;;17.94;100.00;95752.22;1032423;28;20803;-71
2022/08/04 01:04:26;;;;;;;5.97;2.05;;;;;;;17.87;100.00;95751.84;1026152;28;20389;-70
2022/08/04 01:05:10;;;;;;;5.25;1.80;;;;;;;17.91;100.00;95760.78;1026017;28;20021;-71
2022/08/04 01:05:59;;;;;;;6.47;2.20;;;;;;;17.88;100.00;95758.75;1020082;28;20072;-71
2022/08/04 01:06:40;;;;;;;5.00;1.95;;;;;;;17.88;100.00;95758.75;1015565;29;20110;-71
2022/08/04 01:07:29;;;;;;;9.13;2.17;;;;;;;17.87;100.00;95754.50;1021924;29;20216;-70
2022/08/04 01:08:08;;;;;;;6.95;2.03;;;;;;;17.86;100.00;95756.38;1017946;28;20726;-72
2022/08/04 01:08:45;;;;;;;6.22;2.25;;;;;;;17.84;100.00;95755.94;1018007;29;20123;-69
2022/08/04 01:09:37;;;;;;;7.78;2.75;;;;;;;17.85;100.00;95767.31;1026110;28;20035;-71
2022/08/04 01:10:25;;;;;;;5.38;2.28;;;;;;;17.83;100.00;95762.31;1029713;28;20034;-70
2022/08/04 01:11:04;;;;;;;5.97;2.33;;;;;;;17.82;100.00;95763.41;1029871;28;20041;-71
2022/08/04 01:12:05;;;;;;;6.10;2.25;;;;;;;17.82;100.00;95759.97;1028525;28;20160;-70
2022/08/04 01:13:00;;;;;;;3.88;2.13;;;;;;;17.74;100.00;95758.03;1029910;28;20030;-71
2022/08/04 01:13:50;;;;;;;11.05;2.80;;;;;;;17.79;100.00;95764.03;1029440;28;20018;-71
2022/08/04 01:14:28;;;;;;;8.32;2.88;;;;;;;17.79;100.00;95763.25;1026123;28;20439;-72
2022/08/04 01:15:02;;;;;;;4.65;2.40;;;;;;;17.78;100.00;95761.69;1027313;28;20026;-72
2022/08/04 01:15:52;;;;;;;4.75;2.42;;;;;;;17.78;100.00;95764.34;1030173;28;20473;-72
2022/08/04 01:16:24;;;;;;;2.70;2.05;;;;;;;17.76;100.00;95769.13;1025931;28;20082;-71
2022/08/04 01:16:58;;;;;;;3.47;2.00;;;;;;;17.73;100.00;95770.53;1021503;29;20043;-70
2022/08/04 01:17:34;;;;;;;2.90;1.60;;;;;;;17.78;100.00;95780.28;1017843;29;20031;-71
2022/08/04 01:18:06;;;;;;;2.17;1.88;;;;;;;17.77;100.00;95778.69;1025103;28;20092;-71
2022/08/04 01:18:45;;;;;;;5.07;2.50;;;;;;;17.75;100.00;95773.66;1027613;28;20612;-71
2022/08/04 01:19:39;;;;;;;2.90;2.05;;;;;;;17.75;100.00;95773.66;1032231;28;20019;-70
2022/08/04 01:20:10;;;;;;;2.10;1.88;;;;;;;17.74;100.00;95774.75;1029941;28;20026;-71
2022/08/04 01:20:49;;;;;;;2.90;2.13;;;;;;;17.65;100.00;95766.75;1025958;28;20108;-69
2022/08/04 01:21:19;;;;;;;9.93;2.50;;;;;;;17.73;100.00;95775.84;1021191;29;20054;-72
2022/08/04 01:22:01;;;;;;;5.05;2.80;;;;;;;17.72;100.00;95770.84;1023376;28;20019;-73
2022/08/04 01:22:32;;;;;;;4.30;2.03;;;;;;;17.69;100.00;95772.22;1026168;28;20127;-72
2022/08/04 01:23:30;;;;;;;4.05;2.40;;;;;;;17.68;100.00;95774.09;1024915;28;20147;-72
2022/08/04 01:24:22;;;;;;;2.13;1.90;;;;;;;17.64;100.00;95767.84;1029625;28;20480;-71
2022/08/04 01:25:01;;;;;;;3.00;2.10;;;;;;;17.62;100.00;95767.38;1030159;28;20029;-72
2022/08/04 01:25:46;;;;;;;3.67;1.80;;;;;;;17.60;100.00;95769.53;1030137;28;20022;-73
2022/08/04 01:26:37;;;;;;;3.00;2.25;;;;;;;17.58;100.00;95766.41;1033910;28;20063;-70
2022/08/04 01:27:32;;;;;;;3.72;2.22;;;;;;;17.57;100.00;95769.38;1029925;28;20521;-72
2022/08/04 01:28:21;;;;;;;5.13;2.17;;;;;;;17.57;100.00;95772.03;1030177;28;20021;-70
2022/08/04 01:29:11;;;;;;;11.35;2.42;;;;;;;17.55;100.00;95777.66;1029822;28;20057;-71
2022/08/04 01:29:54;;;;;;;5.88;2.42;;;;;;;17.52;100.00;95762.34;1030198;28;20015;-71
2022/08/04 01:30:25;;;;;;;5.30;2.40;;;;;;;17.47;100.00;95773.09;1021994;28;20035;-72
2022/08/04 01:30:57;;;;;;;6.10;2.83;;;;;;;17.51;100.00;95771.38;1026114;28;20030;-71
2022/08/04 01:31:49;;;;;;;6.72;2.72;;;;;;;17.51;100.00;95774.03;1021216;28;20023;-71
2022/08/04 01:32:36;;;;;;;6.40;2.55;;;;;;;17.50;100.00;95775.09;1021845;29;20019;-71
2022/08/04 01:33:12;;;;;;;6.63;2.17;;;;;;;17.48;100.00;95782.59;1023909;28;20028;-71
2022/08/04 01:33:42;;;;;;;5.05;2.25;;;;;;;17.45;100.00;95777.91;1026035;28;20022;-71
2022/08/04 01:34:13;;;;;;;4.97;2.53;;;;;;;17.36;100.00;95766.47;1017641;29;20055;-71
2022/08/04 01:34:55;;;;;;;8.27;2.33;;;;;;;17.45;100.00;95777.91;1021931;29;20364;-71
2022/08/04 01:35:28;;;;;;;5.65;2.40;;;;;;;17.46;100.00;95776.81;1025824;28;20031;-71
2022/08/04 01:36:05;;;;;;;5.45;2.00;;;;;;;17.43;100.00;95777.41;1017906;29;20050;-71
2022/08/04 01:36:35;;;;;;;4.18;2.20;;;;;;;17.43;100.00;95780.84;1018157;29;20040;-73
2022/08/04 01:37:21;;;;;;;13.38;3.13;;;;;;;17.44;100.00;95781.66;1018111;29;20016;-72
2022/08/04 01:38:15;;;;;;;4.68;2.30;;;;;;;17.37;100.00;95763.53;1018092;29;20039;-70
2022/08/04 01:38:46;;;;;;;6.38;2.35;;;;;;;17.40;100.00;95767.41;1021577;28;20537;-70
2022/08/04 01:40:06;;;;;;;7.88;2.65;;;;;;;17.33;100.00;95769.72;1025591;28;20066;-71
2022/08/04 01:40:37;;;;;;;5.90;2.45;;;;;;;17.39;100.00;95779.91;1024451;28;20820;-71
2022/08/04 01:41:09;;;;;;;6.90;2.40;;;;;;;17.39;100.00;95787.09;1025396;28;20035;-71
2022/08/04 01:41:39;;;;;;;13.27;2.88;;;;;;;17.35;100.00;95773.66;1020321;29;20109;-71
2022/08/04 01:42:10;;;;;;;10.52;3.03;;;;;;;17.36;100.00;95779.72;1022291;28;20776;-73
2022/08/04 01:42:41;;;;;;;16.88;3.28;;;;;;;17.36;100.00;95775.19;1028756;28;20015;-70
2022/08/04 01:43:12;;;;;;;10.35;3.17;;;;;;;17.35;100.00;95778.19;1025840;28;20023;-71
2022/08/04 01:43:43;;;;;;;10.60;2.90;;;;;;;17.38;100.00;95780.22;1029606;28;20106;-71
2022/08/04 01:44:14;;;;;;;13.07;3.08;;;;;;;17.37;100.00;95783.94;1027650;28;20023;-71
2022/08/04 01:44:44;;;;;;;8.63;2.58;;;;;;;17.36;100.00;95777.84;1029822;28;20053;-71
2022/08/04 01:45:15;;;;;;;6.38;2.45;;;;;;;17.37;100.00;95786.59;1021685;28;20027;-70
2022/08/04 01:45:55;;;;;;;4.88;2.40;;;;;;;17.35;100.00;95780.81;1016291;29;20059;-72
2022/08/04 01:46:26;;;;;;;;;;;;;;;17.36;100.00;95779.72;1019179;29;20055;-70
2022/08/04 01:46:56;;;;;;;10.00;3.17;;;;;;;17.35;100.00;95778.19;1021578;28;19906;-72
2022/08/04 01:47:28;;;;;;;3.25;2.00;;;;;;;17.34;100.00;95781.94;1022557;29;20023;-71
2022/08/04 01:47:59;;;;;;;5.22;2.63;;;;;;;17.33;100.00;95780.34;1018619;29;20056;-70
2022/08/04 01:48:29;;;;;;;4.55;2.60;;;;;;;17.33;100.00;95770.50;1018850;29;20036;-71
2022/08/04 01:49:00;;;;;;;8.20;2.88;;;;;;;17.33;100.00;95775.81;1022745;29;20042;-70
2022/08/04 01:49:31;;;;;;;11.57;2.63;;;;;;;17.28;100.00;95772.53;1022727;29;20595;-71
2022/08/04 01:50:09;;;;;;;2.85;2.25;;;;;;;17.34;100.00;95782.69;1026597;28;20062;-71
2022/08/04 01:50:39;;;;;;;3.92;2.20;;;;;;;17.33;100.00;95781.13;1030829;28;20504;-69
2022/08/04 01:51:10;;;;;;;7.70;2.25;;;;;;;17.35;100.00;95775.53;1022121;28;20020;-72
2022/08/04 01:51:40;;;;;;;3.42;2.17;;;;;;;17.39;100.00;95787.09;1022743;29;20034;-71
2022/08/04 01:52:10;;;;;;;3.70;2.50;;;;;;;17.35;100.00;95778.94;1018645;29;20079;-72
2022/08/04 01:52:42;;;;;;;2.97;2.13;;;;;;;17.43;100.00;95780.06;1026742;28;20026;-71
2022/08/04 01:53:12;;;;;;;2.90;2.17;;;;;;;17.40;100.00;95778.84;1022878;28;20557;-71
2022/08/04 01:53:43;;;;;;;4.82;2.10;;;;;;;17.42;100.00;95778.53;1022706;29;20023;-71
2022/08/04 01:54:14;;;;;;;3.85;2.05;;;;;;;17.43;100.00;95785.38;1022660;28;20076;-71
2022/08/04 01:54:45;;;;;;;2.30;2.05;;;;;;;17.37;100.00;95775.97;1022771;28;20047;-70
2022/08/04 01:55:16;;;;;;;15.90;3.15;;;;;;;17.41;100.00;95782.25;1022753;29;20038;-71
2022/08/04 01:55:48;;;;;;;3.85;2.40;;;;;;;17.40;100.00;95781.50;1023192;28;20031;-72
2022/08/04 01:56:18;;;;;;;7.63;2.95;;;;;;;17.40;100.00;95780.69;1022415;29;20038;-69
2022/08/04 01:56:49;;;;;;;16.23;3.80;;;;;;;17.38;100.00;95788.19;1022928;28;20101;-72
2022/08/04 01:57:19;;;;;;;16.73;2.92;;;;;;;17.37;100.00;95786.59;1026494;28;20527;-71
2022/08/04 01:57:51;;;;;;;20.50;3.58;;;;;;;17.39;100.00;95785.22;1026837;28;20022;-70
2022/08/04 01:58:22;;;;;;;11.15;2.50;;;;;;;17.38;100.00;95782.88;1030816;28;20081;-70
2022/08/04 01:58:52;;;;;;;6.82;2.90;;;;;;;17.36;100.00;95790.34;1030733;28;20032;-70
2022/08/04 01:59:23;;;;;;;8.68;2.75;;;;;;;17.35;100.00;95786.13;1014712;28;20035;-72
2022/08/04 01:59:53;;;;;;;17.65;3.22;;;;;;;17.33;100.00;95781.13;1014831;29;20079;-71
2022/08/04 02:00:26;;;;;;;5.63;2.38;;;;;;;17.32;100.00;95784.09;1014789;29;20425;-70
2022/08/04 02:01:01;;;;;;;15.73;4.53;;;;;;;17.30;100.00;95787.03;1018585;29;20525;-72
2022/08/04 02:01:34;;;;;;;5.60;2.65;;;;;;;17.30;100.00;95791.56;1017965;29;20338;-71
2022/08/04 02:02:05;;;;;;;5.47;3.08;;;;;;;17.25;100.00;95783.75;1021354;28;20562;-71
2022/08/04 02:02:35;;;;;;;5.75;2.50;;;;;;;17.16;100.00;95773.84;1023708;28;20047;-71
2022/08/04 02:03:06;;;;;;;3.83;2.00;;;;;;;17.25;100.00;95786.38;1025836;28;20105;-70
2022/08/04 02:03:40;;;;;;;11.55;2.80;;;;;;;17.25;100.00;95783.75;1026843;28;20039;-71
2022/08/04 02:04:16;;;;;;;3.72;2.70;;;;;;;17.22;100.00;95781.69;1027299;28;20034;-71
2022/08/04 02:04:46;;;;;;;3.15;2.50;;;;;;;17.20;100.00;95782.78;1025199;28;20035;-72
2022/08/04 02:05:18;;;;;;;3.38;2.50;;;;;;;17.16;100.00;95770.41;1023232;28;20505;-71
2022/08/04 02:05:49;;;;;;;3.90;2.25;;;;;;;17.20;100.00;95785.44;1026571;28;20034;-73
2022/08/04 02:06:44;;;;;;;5.13;2.53;;;;;;;17.19;100.00;95778.53;1026652;28;20383;-72
2022/08/04 02:07:21;;;;;;;9.90;2.80;;;;;;;17.19;100.00;95780.41;1030508;28;20630;-71
2022/08/04 02:08:13;;;;;;;14.70;2.92;;;;;;;17.02;100.00;95759.13;1026988;28;20027;-72
2022/08/04 02:08:55;;;;;;;16.05;2.97;;;;;;;17.09;100.00;95784.09;1022646;28;20513;-71
2022/08/04 02:09:58;;;;;;;10.32;2.42;;;;;;;17.13;100.00;95786.94;1026647;28;20069;-71
2022/08/04 02:10:59;;;;;;;3.00;2.28;;;;;;;17.11;100.00;95787.25;1024137;28;20570;-71
2022/08/04 02:11:29;;;;;;;3.95;2.50;;;;;;;17.09;100.00;95788.63;1021417;28;20027;-72
2022/08/04 02:12:21;;;;;;;3.28;2.28;;;;;;;17.06;100.00;95781.28;1022430;29;20051;-71
2022/08/04 02:13:02;;;;;;;4.60;2.40;;;;;;;17.07;100.00;95788.13;1021442;28;20110;-72
2022/08/04 02:13:53;;;;;;;4.53;2.20;;;;;;;17.05;100.00;95785.81;1015092;29;20032;-70
2022/08/04 02:14:39;;;;;;;7.68;2.20;;;;;;;17.02;100.00;95781.09;1018773;29;20044;-71
2022/08/04 02:15:41;;;;;;;2.80;2.58;;;;;;;17.03;100.00;95787.97;1019989;28;20020;-71
2022/08/04 02:16:20;;;;;;;2.58;2.20;;;;;;;17.02;100.00;95786.41;1016480;29;20521;-72
2022/08/04 02:16:51;;;;;;;6.68;2.72;;;;;;;17.01;100.00;95782.19;1022082;29;20094;-71
2022/08/04 02:17:25;;;;;;;4.82;2.40;;;;;;;17.00;100.00;95785.94;1022261;29;20098;-69
2022/08/04 02:18:14;;;;;;;3.88;2.45;;;;;;;17.00;100.00;95788.59;1026788;28;20106;-72
2022/08/04 02:19:03;;;;;;;4.38;2.40;;;;;;;16.98;100.00;95784.66;1024401;28;20030;-71
2022/08/04 02:19:58;;;;;;;2.58;2.30;;;;;;;16.95;100.00;95789.47;1027310;28;20022;-72
2022/08/04 02:20:35;;;;;;;6.50;2.65;;;;;;;16.96;100.00;95792.91;1032672;28;20768;-71
2022/08/04 02:21:06;;;;;;;4.45;2.45;;;;;;;16.94;100.00;95790.56;1030110;28;20646;-71
2022/08/04 02:21:36;;;;;;;8.43;2.30;;;;;;;16.94;100.00;95789.78;1026165;28;20084;-70
2022/08/04 02:22:08;;;;;;;8.35;2.70;;;;;;;16.94;100.00;95792.44;1020333;28;20026;-71
2022/08/04 02:22:43;;;;;;;8.30;2.85;;;;;;;16.94;100.00;95792.44;1018396;29;20083;-72
2022/08/04 02:23:14;;;;;;;4.90;2.25;;;;;;;16.86;100.00;95785.19;1014572;29;20541;-71
2022/08/04 02:23:46;;;;;;;4.00;2.22;;;;;;;16.91;100.00;95795.69;1013798;29;20491;-71
2022/08/04 02:24:17;;;;;;;2.88;2.30;;;;;;;16.93;100.00;95793.50;1021627;29;20035;-71
2022/08/04 02:24:49;;;;;;;4.60;2.88;;;;;;;16.89;100.00;95785.38;1026659;28;20033;-71
2022/08/04 02:25:23;;;;;;;8.10;2.83;;;;;;;16.91;100.00;95788.50;1022384;28;20027;-71
2022/08/04 02:26:03;;;;;;;6.13;2.70;;;;;;;16.90;100.00;95783.50;1019402;29;20042;-71
2022/08/04 02:26:34;;;;;;;;;;;;;;;16.89;100.00;95795.19;1019187;29;20650;-71
2022/08/04 02:27:04;;;;;;;4.45;2.50;;;;;;;16.87;100.00;95781.47;1022487;29;19918;-72
2022/08/04 02:27:46;;;;;;;7.80;3.08;;;;;;;16.85;100.00;95786.28;1019867;29;20023;-70
2022/08/04 02:28:29;;;;;;;9.98;2.40;;;;;;;16.84;100.00;95780.22;1028094;28;20081;-70
2022/08/04 02:29:03;;;;;;;3.78;2.42;;;;;;;16.87;100.00;95789.44;1022822;28;20210;-71
2022/08/04 02:29:39;;;;;;;3.55;2.30;;;;;;;16.90;100.00;95794.09;1018398;29;20111;-72
2022/08/04 02:30:10;;;;;;;2.75;2.20;;;;;;;16.89;100.00;95787.25;1019606;29;20031;-70
2022/08/04 02:30:52;;;;;;;8.38;2.50;;;;;;;16.90;100.00;95789.59;1027296;28;20050;-71
2022/08/04 02:31:28;;;;;;;2.60;2.08;;;;;;;16.90;100.00;95789.59;1022595;29;20450;-71
2022/08/04 02:32:03;;;;;;;3.92;2.42;;;;;;;16.73;100.00;95761.09;1023107;29;20408;-71
2022/08/04 02:32:38;;;;;;;4.05;2.50;;;;;;;16.88;100.00;95783.81;1026161;28;20033;-71
2022/08/04 02:33:09;;;;;;;5.20;2.95;;;;;;;16.80;100.00;95776.59;1029524;28;20596;-71
2022/08/04 02:33:42;;;;;;;2.95;2.58;;;;;;;16.88;100.00;95785.69;1030147;28;20073;-72
2022/08/04 02:34:27;;;;;;;9.18;2.42;;;;;;;16.82;100.00;95781.59;1027254;28;20082;-72
2022/08/04 02:35:27;;;;;;;7.93;2.63;;;;;;;16.85;100.00;95787.06;1027482;28;20039;-71
2022/08/04 02:35:58;;;;;;;5.72;2.72;;;;;;;16.84;100.00;95784.72;1014943;29;20059;-70
2022/08/04 02:36:39;;;;;;;3.63;2.47;;;;;;;16.85;100.00;95786.28;1019493;29;20042;-69
2022/08/04 02:37:09;;;;;;;5.38;2.58;;;;;;;16.83;100.00;95788.44;1023214;29;20053;-71
2022/08/04 02:37:46;;;;;;;3.83;2.72;;;;;;;16.83;100.00;95783.13;1020679;29;20019;-70
2022/08/04 02:38:45;;;;;;;4.95;2.55;;;;;;;16.84;100.00;95779.44;1021594;29;20035;-72
2022/08/04 02:39:18;;;;;;;5.88;3.00;;;;;;;16.81;100.00;95787.97;1019695;29;20028;-71
2022/08/04 02:39:51;;;;;;;2.53;2.33;;;;;;;16.80;100.00;95781.09;1027856;28;20077;-71
2022/08/04 02:40:21;;;;;;;5.32;2.83;;;;;;;16.80;100.00;95784.56;1023285;29;20039;-70
2022/08/04 02:40:53;;;;;;;4.93;2.80;;;;;;;16.76;100.00;95777.47;1019410;29;20023;-70
2022/08/04 02:41:25;;;;;;;4.28;2.97;;;;;;;16.78;100.00;95780.63;1018690;29;20122;-70
2022/08/04 02:41:55;;;;;;;8.50;2.70;;;;;;;16.78;100.00;95783.28;1019792;29;20107;-71
2022/08/04 02:42:27;;;;;;;5.60;2.40;;;;;;;16.71;100.00;95773.06;1024076;28;20093;-71
2022/08/04 02:42:58;;;;;;;4.32;3.10;;;;;;;16.72;100.00;95778.06;1027522;28;20057;-71
2022/08/04 02:43:29;;;;;;;6.50;3.20;;;;;;;16.76;100.00;95780.13;1027516;28;20031;-71
2022/08/04 02:44:07;;;;;;;6.45;2.90;;;;;;;16.77;100.00;95784.34;1023470;29;20027;-70
2022/08/04 02:44:38;;;;;;;4.90;2.80;;;;;;;16.76;100.00;95778.25;1023307;29;20477;-71
2022/08/04 02:45:08;;;;;;;5.53;2.63;;;;;;;16.78;100.00;95786.72;1024669;28;20023;-72
2022/08/04 02:45:40;;;;;;;6.63;2.60;;;;;;;16.79;100.00;95784.84;1023089;28;20035;-70
2022/08/04 02:46:10;;;;;;;2.85;2.60;;;;;;;16.79;100.00;95777.66;1023023;28;20046;-71
2022/08/04 02:46:41;;;;;;;4.38;2.65;;;;;;;16.77;100.00;95779.03;1027096;28;20381;-69
2022/08/04 02:47:11;;;;;;;5.50;2.67;;;;;;;16.81;100.00;95785.31;1023658;28;20023;-71
2022/08/04 02:47:42;;;;;;;2.67;2.45;;;;;;;16.77;100.00;95774.53;1023371;28;20039;-70
2022/08/04 02:48:13;;;;;;;4.78;2.90;;;;;;;16.85;100.00;95788.94;1027344;28;20026;-71
2022/08/04 02:48:44;;;;;;;4.80;3.95;;;;;;;16.85;100.00;95786.28;1027201;28;20035;-71
2022/08/04 02:49:15;;;;;;;2.90;2.63;;;;;;;16.86;100.00;95788.63;1015326;29;20091;-70
2022/08/04 02:49:45;;;;;;;4.15;2.40;;;;;;;16.85;100.00;95786.28;1019522;29;20402;-71
2022/08/04 02:50:17;;;;;;;5.70;2.55;;;;;;;16.80;100.00;95778.44;1023280;29;20039;-71
2022/08/04 02:50:47;;;;;;;4.88;3.05;;;;;;;16.85;100.00;95787.06;1023730;28;20033;-70
2022/08/04 02:51:30;;;;;;;4.10;3.00;;;;;;;16.85;100.00;95780.97;1022553;28;20046;-71
2022/08/04 02:52:00;;;;;;;10.27;3.17;;;;;;;16.78;100.00;95773.44;1023298;28;20034;-71
2022/08/04 02:52:30;;;;;;;17.00;3.65;;;;;;;16.83;100.00;95783.91;1023163;28;20113;-71
2022/08/04 02:53:05;;;;;;;5.55;2.60;;;;;;;16.84;100.00;95784.72;1029171;28;20039;-71